LGTS/SKG METAR and TAF weather

Enter ICAO airport designator
Station Type Date Time Source
LGTS METAR 2020/04/07 06:50 UTC NOAA

LGTS 070650Z VRB02KT 9999 FEW030 10/05 Q1028 NOSIG


Station Type Date Time Source
LGTS Decoded METAR 2020/04/07 06:50 UTC NOAA

Thessaloniki Airport , Greece (LGTS) 40-31N 022-58E 4M
Apr 07, 2020 - 02:50 AM EDT / 2020.04.07 0650 UTC
Wind: Variable at 2 MPH (2 KT):0
Visibility: greater than 7 mile(s):0
Sky conditions: mostly clear
Temperature: 50 F (10 C)
Dew Point: 41 F (5 C)
Relative Humidity: 71%
Pressure (altimeter): 30.36 in. Hg (1028 hPa)
ob: LGTS 070650Z VRB02KT 9999 FEW030 10/05 Q1028 NOSIG
cycle: 7

Station Type Date Time Source
LGTS TAF 2020/04/07 06:13 UTC NOAA

TAF LGTS 070500Z 0706/0806 34012KT 9999 FEW030
BECMG 0715/0717 VRB03KT

Example: see airport list